LEIB/IBZ METAR and TAF weather

Enter ICAO airport designator
Station Type Date Time Source
LEIB METAR 2021/05/14 04:30 UTC NOAA

LEIB 140430Z 30005KT CAVOK 17/14 Q1010 NOSIG


Station Type Date Time Source
LEIB Decoded METAR 2021/05/14 04:30 UTC NOAA

Ibiza / Es Codola, Spain (LEIB) 38-52N 001-23E 12M
May 14, 2021 - 12:30 AM EDT / 2021.05.14 0430 UTC
Wind: from the WNW (300 degrees) at 6 MPH (5 KT):0
Visibility: greater than 7 mile(s):0
Temperature: 62 F (17 C)
Dew Point: 57 F (14 C)
Relative Humidity: 82%
Pressure (altimeter): 29.83 in. Hg (1010 hPa)
ob: LEIB 140430Z 30005KT CAVOK 17/14 Q1010 NOSIG
cycle: 4

Station Type Date Time Source
LEIB TAF 2021/05/14 03:27 UTC NOAA

TAF LEIB 140200Z 1403/1503 33012KT CAVOK TX22/1412Z TN15/1405Z
TEMPO 1406/1412 34015G30KT
BECMG 1416/1418 22009KT
TEMPO 1417/1420 14008KT

Example: see airport list